Time;durP1;ratioP1;P1;durP2;ratioP2;P2;SDS_P1;SDS_P2;PMS_P1;PMS_P2;Temp;Humidity;BMP_temperature;BMP_pressure;BME280_temperature;BME280_humidity;BME280_pressure;Samples;Min_cycle;Max_cycle;Signal;HPM_P1;HPM_P2
2022/09/26 00:01:45;;;;;;;8.07;2.25;;;;;;;11.14;100.00;97166.56;4764613;29;20470;-91
2022/09/26 00:04:23;;;;;;;7.18;2.33;;;;;;;10.83;100.00;97169.41;4759223;29;21711;-91
2022/09/26 00:06:55;;;;;;;5.85;2.00;;;;;;;10.86;100.00;97164.13;4783698;29;20073;-92
2022/09/26 00:09:34;;;;;;;7.70;1.73;;;;;;;10.84;100.00;97179.81;4779904;29;20080;-90
2022/09/26 00:12:21;;;;;;;5.15;1.70;;;;;;;10.71;100.00;97162.91;4780427;29;20031;-90
2022/09/26 00:14:50;;;;;;;4.95;1.23;;;;;;;10.83;100.00;97172.91;4780507;29;20134;-89
2022/09/26 00:17:21;;;;;;;4.88;1.17;;;;;;;10.74;100.00;97154.97;4774393;29;20048;-90
2022/09/26 00:19:52;;;;;;;3.83;1.20;;;;;;;10.63;100.00;97162.31;4758699;29;20075;-90
2022/09/26 00:22:17;;;;;;;3.92;1.05;;;;;;;10.63;100.00;97147.50;4745486;30;20047;-89
2022/09/26 00:24:49;;;;;;;5.47;1.10;;;;;;;10.54;100.00;97156.50;4758447;30;20040;-87
2022/09/26 00:27:20;;;;;;;3.15;0.90;;;;;;;10.58;100.00;97152.06;4747583;30;20210;-89
2022/09/26 00:30:10;;;;;;;3.22;0.90;;;;;;;10.53;100.00;97147.00;4759987;30;20051;-89
2022/09/26 00:32:36;;;;;;;4.82;1.40;;;;;;;10.51;100.00;97156.63;4758296;30;20104;-90
2022/09/26 00:35:03;;;;;;;5.22;1.10;;;;;;;10.41;100.00;97147.44;4743137;30;20749;-90
2022/09/26 00:37:34;;;;;;;3.75;0.90;;;;;;;10.37;100.00;97115.41;4749683;30;20156;-91
2022/09/26 00:40:11;;;;;;;3.70;0.90;;;;;;;10.31;100.00;97099.94;4745364;30;20093;-91
2022/09/26 00:43:00;;;;;;;2.45;0.70;;;;;;;10.26;100.00;97099.28;4746960;30;20487;-90
2022/09/26 00:45:32;;;;;;;3.80;1.10;;;;;;;10.28;100.00;97092.22;4775208;29;20047;-90
2022/09/26 00:48:04;;;;;;;4.65;0.98;;;;;;;10.33;100.00;97095.53;4779015;29;20077;-90
2022/09/26 00:50:39;;;;;;;3.35;0.70;;;;;;;10.22;100.00;97127.16;4781206;29;20043;-90
2022/09/26 00:53:13;;;;;;;3.00;0.82;;;;;;;11.46;100.00;97130.56;4778698;29;20070;-90
2022/09/26 00:55:44;;;;;;;2.70;0.90;;;;;;;11.33;100.00;97117.16;4777522;29;20046;-89
2022/09/26 00:58:28;;;;;;;2.75;0.65;;;;;;;11.84;100.00;97127.34;4780070;29;20139;-90
2022/09/26 01:00:54;;;;;;;;;;;;;;;11.89;100.00;97120.19;4779534;29;20047;-87
2022/09/26 01:03:21;;;;;;;1.17;0.38;;;;;;;11.40;100.00;97107.31;4764280;30;20009;-88
2022/09/26 01:05:48;;;;;;;3.65;0.68;;;;;;;11.55;100.00;97088.44;4774943;29;20042;-89
2022/09/26 01:08:17;;;;;;;1.73;0.55;;;;;;;11.74;100.00;97091.16;4765283;30;20046;-89
2022/09/26 01:10:44;;;;;;;4.00;0.90;;;;;;;11.76;100.00;97062.34;4782258;29;20062;-88
2022/09/26 01:13:11;;;;;;;3.40;0.80;;;;;;;11.88;100.00;97046.19;4772461;30;20044;-89
2022/09/26 01:15:37;;;;;;;3.92;0.98;;;;;;;11.25;100.00;97007.81;4798813;29;20042;-90
2022/09/26 01:18:06;;;;;;;5.72;1.45;;;;;;;11.33;100.00;97027.53;4771042;29;20078;-89
2022/09/26 01:20:55;;;;;;;7.75;2.67;;;;;;;11.74;100.00;97030.25;4767953;30;20404;-88
2022/09/26 01:23:58;;;;;;;9.05;3.10;;;;;;;11.92;100.00;97024.25;4779105;29;20062;-90
2022/09/26 01:27:00;;;;;;;9.95;3.42;;;;;;;11.94;100.00;97027.69;4742409;30;20107;-89
2022/09/26 01:29:57;;;;;;;9.23;4.43;;;;;;;11.93;100.00;97006.81;4751575;30;20043;-89
2022/09/26 01:32:49;;;;;;;10.77;4.90;;;;;;;12.05;100.00;97003.72;4728592;30;20044;-89
2022/09/26 01:36:04;;;;;;;11.75;5.47;;;;;;;11.86;100.00;96987.94;4741484;30;20044;-90
2022/09/26 01:38:51;;;;;;;10.73;4.57;;;;;;;11.88;100.00;96982.66;4676967;30;20084;-92
2022/09/26 01:41:54;;;;;;;9.05;3.80;;;;;;;11.94;100.00;96985.88;4672489;30;20204;-91
2022/09/26 01:44:44;;;;;;;6.57;2.47;;;;;;;11.97;100.00;96981.44;4692989;30;20135;-91
2022/09/26 01:47:38;;;;;;;6.85;2.30;;;;;;;12.00;100.00;96969.09;4691874;30;20057;-91
2022/09/26 01:50:11;;;;;;;5.47;1.65;;;;;;;12.04;100.00;96986.34;4696477;30;20054;-91
2022/09/26 01:52:49;;;;;;;3.25;0.90;;;;;;;12.19;100.00;96963.91;4682265;30;20168;-91
2022/09/26 01:55:37;;;;;;;3.20;0.88;;;;;;;12.34;100.00;96953.69;4695727;30;20125;-91
2022/09/26 01:58:21;;;;;;;6.25;1.48;;;;;;;12.46;100.00;96945.28;4675103;30;20052;-91
2022/09/26 02:00:49;;;;;;;7.45;1.80;;;;;;;12.49;100.00;96932.06;4720697;24;20146;-96
2022/09/26 02:03:29;;;;;;;7.90;1.65;;;;;;;16.21;100.00;96942.97;4746893;30;20572;-94
2022/09/26 02:06:03;;;;;;;5.38;1.40;;;;;;;12.31;100.00;96914.63;4749135;30;20122;-95
2022/09/26 02:09:03;;;;;;;5.80;1.65;;;;;;;12.24;100.00;96911.44;4754837;30;20039;-94
2022/09/26 02:11:30;;;;;;;5.30;1.40;;;;;;;12.20;100.00;96894.19;4764673;30;20527;-95
2022/09/26 02:14:27;;;;;;;6.32;1.30;;;;;;;12.39;100.00;96899.44;4752401;30;20087;-95
2022/09/26 02:16:57;;;;;;;7.18;1.70;;;;;;;12.34;100.00;96885.72;4749430;30;20036;-96
2022/09/26 02:19:42;;;;;;;4.28;1.30;;;;;;;12.54;100.00;96877.78;4753573;30;20119;-96
2022/09/26 02:22:11;;;;;;;5.15;1.38;;;;;;;12.68;100.00;96876.28;4754358;30;20047;-95
2022/09/26 02:24:37;;;;;;;8.20;1.88;;;;;;;12.52;100.00;96890.06;4749822;30;20039;-96
2022/09/26 02:27:03;;;;;;;7.35;1.83;;;;;;;12.31;100.00;96904.16;4748436;30;20066;-96
2022/09/26 02:29:31;;;;;;;4.18;1.15;;;;;;;12.17;100.00;96915.25;4754862;30;20509;-95
2022/09/26 02:32:04;;;;;;;11.60;1.70;;;;;;;11.59;100.00;96925.53;4767042;30;20060;-95
2022/09/26 02:34:32;;;;;;;;;;;;;;;10.95;100.00;97007.28;4737622;30;20032;-95
2022/09/26 02:36:59;;;;;;;9.73;1.50;;;;;;;10.60;100.00;96954.72;4766070;30;19918;-96
2022/09/26 02:40:04;;;;;;;17.15;2.17;;;;;;;10.62;100.00;96923.38;4745148;30;20032;-96
2022/09/26 02:42:50;;;;;;;10.65;1.80;;;;;;;10.70;100.00;96916.13;4763589;30;20063;-96
2022/09/26 02:45:56;;;;;;;11.13;1.80;;;;;;;10.58;100.00;96909.63;4765076;30;20055;-96
2022/09/26 02:49:16;;;;;;;17.15;2.38;;;;;;;10.83;100.00;96901.69;4746867;30;20584;-96
2022/09/26 02:52:08;;;;;;;13.95;1.92;;;;;;;11.05;100.00;96887.75;4733389;30;20135;-96
2022/09/26 02:55:00;;;;;;;11.73;2.13;;;;;;;10.83;100.00;96839.09;4740325;30;20062;-95
2022/09/26 02:57:28;;;;;;;10.85;1.83;;;;;;;10.95;100.00;96865.59;4697460;30;20099;-96
2022/09/26 03:00:30;;;;;;;16.90;2.05;;;;;;;10.87;100.00;96850.25;4699159;30;20054;-95
2022/09/26 03:03:19;;;;;;;15.95;2.35;;;;;;;11.01;100.00;96860.97;4681499;30;20519;-95
2022/09/26 03:05:56;;;;;;;14.52;2.10;;;;;;;14.09;100.00;96843.88;4686179;30;20154;-95
2022/09/26 03:08:26;;;;;;;14.38;2.10;;;;;;;11.99;100.00;96810.63;4672077;30;20204;-96
2022/09/26 03:11:01;;;;;;;12.55;1.90;;;;;;;11.12;100.00;96825.75;4695286;30;20144;-96
2022/09/26 03:13:46;;;;;;;10.88;2.40;;;;;;;11.01;100.00;96839.25;4672865;30;20042;-96
2022/09/26 03:16:29;;;;;;;15.07;2.75;;;;;;;11.11;100.00;96835.34;4686439;30;20045;-96
2022/09/26 03:19:02;;;;;;;10.23;2.28;;;;;;;10.96;100.00;96829.00;4682270;30;20038;-96
2022/09/26 03:21:28;;;;;;;11.85;2.15;;;;;;;11.03;100.00;96833.06;4670367;30;20050;-96
2022/09/26 03:23:56;;;;;;;13.75;2.45;;;;;;;10.99;100.00;96830.66;4688290;30;20096;-96
2022/09/26 03:26:24;;;;;;;20.08;2.65;;;;;;;12.23;100.00;96837.41;4672081;30;20038;-95
2022/09/26 03:28:52;;;;;;;20.60;3.03;;;;;;;11.25;100.00;96812.13;4668895;30;20104;-96
2022/09/26 03:31:23;;;;;;;16.33;2.30;;;;;;;11.58;100.00;96805.50;4674116;30;20740;-96
2022/09/26 03:33:51;;;;;;;15.32;2.47;;;;;;;10.72;100.00;96823.91;4705371;30;20052;-96
2022/09/26 03:36:23;;;;;;;14.77;2.63;;;;;;;10.79;100.00;96834.94;4760103;30;20044;-96
2022/09/26 03:38:48;;;;;;;12.30;2.00;;;;;;;11.02;100.00;96838.34;4753951;30;20032;-96
2022/09/26 03:41:14;;;;;;;16.27;1.85;;;;;;;10.84;100.00;96834.72;4770448;30;20115;-96
2022/09/26 03:43:42;;;;;;;14.48;2.30;;;;;;;10.87;100.00;96839.81;4741201;30;20071;-96
2022/09/26 03:46:10;;;;;;;20.83;2.53;;;;;;;10.18;100.00;96814.72;4752626;30;20415;-96
2022/09/26 03:48:37;;;;;;;15.40;2.40;;;;;;;10.17;100.00;96803.44;4747856;30;20044;-95
2022/09/26 03:51:05;;;;;;;20.15;2.85;;;;;;;9.98;100.00;96812.88;4767510;30;20119;-96
2022/09/26 03:53:32;;;;;;;17.38;3.70;;;;;;;9.97;100.00;96808.59;4755473;30;20059;-96
2022/09/26 03:56:03;;;;;;;17.88;3.38;;;;;;;10.23;100.00;96797.19;4751505;30;20131;-95
2022/09/26 03:58:29;;;;;;;21.25;3.17;;;;;;;10.75;100.00;96808.13;4753259;30;20032;-96
2022/09/26 04:00:55;;;;;;;17.27;2.67;;;;;;;9.93;100.00;96794.00;4743125;30;20070;-96
2022/09/26 04:03:20;;;;;;;19.20;3.72;;;;;;;10.27;100.00;96797.88;4740404;30;20050;-95
2022/09/26 04:05:46;;;;;;;27.45;3.65;;;;;;;10.22;100.00;96772.88;4762792;30;20044;-96
2022/09/26 04:08:27;;;;;;;28.90;3.83;;;;;;;10.76;100.00;96807.22;4763162;30;20540;-95
2022/09/26 04:11:02;;;;;;;22.30;4.57;;;;;;;10.90;100.00;96793.59;4756227;30;20120;-95
2022/09/26 04:13:30;;;;;;;32.47;4.05;;;;;;;10.94;100.00;96776.09;4775453;30;20032;-96
2022/09/26 04:15:59;;;;;;;28.35;5.22;;;;;;;10.63;100.00;96792.97;4742197;30;20042;-95
2022/09/26 04:18:29;;;;;;;27.70;5.07;;;;;;;10.92;100.00;96767.47;4753328;30;20486;-96
2022/09/26 04:21:09;;;;;;;26.60;4.35;;;;;;;10.79;100.00;96769.75;4769231;30;20040;-94
2022/09/26 04:23:42;;;;;;;34.85;5.43;;;;;;;10.81;100.00;96769.69;4768195;30;20698;-95
2022/09/26 04:26:19;;;;;;;29.70;4.43;;;;;;;10.83;100.00;96771.31;4757852;30;20049;-96
2022/09/26 04:28:45;;;;;;;31.67;5.53;;;;;;;10.85;100.00;96763.41;4742232;30;20044;-96
2022/09/26 04:31:12;;;;;;;28.75;4.75;;;;;;;10.75;100.00;96745.53;4755421;30;20028;-95
2022/09/26 04:33:39;;;;;;;28.75;4.68;;;;;;;10.72;100.00;96750.91;4759432;30;20062;-95
2022/09/26 04:36:09;;;;;;;29.55;4.47;;;;;;;10.65;100.00;96770.31;4758657;30;20046;-95
2022/09/26 04:38:43;;;;;;;25.98;3.97;;;;;;;10.29;100.00;96763.06;4744258;30;20036;-94
2022/09/26 04:41:30;;;;;;;34.65;4.95;;;;;;;10.36;100.00;96771.50;4754792;30;20036;-96
2022/09/26 04:44:20;;;;;;;26.85;4.68;;;;;;;10.65;100.00;96779.91;4754313;30;20067;-96
2022/09/26 04:46:49;;;;;;;30.02;5.45;;;;;;;10.48;100.00;96780.56;4771561;30;20081;-95
2022/09/26 04:49:39;;;;;;;35.53;4.97;;;;;;;10.54;100.00;96762.94;4740546;30;20036;-96
2022/09/26 04:52:14;;;;;;;27.65;4.55;;;;;;;10.51;100.00;96762.22;4742948;30;20063;-96
2022/09/26 04:54:43;;;;;;;28.80;4.55;;;;;;;10.54;100.00;96762.09;4784277;30;20709;-96
2022/09/26 04:57:18;;;;;;;30.55;4.88;;;;;;;10.39;100.00;96740.09;4742038;30;20150;-96
2022/09/26 04:59:44;;;;;;;34.75;4.95;;;;;;;10.51;100.00;96746.59;4747930;30;20051;-96
2022/09/26 05:02:11;;;;;;;36.15;5.30;;;;;;;10.21;100.00;96742.50;4711278;30;20041;-96
2022/09/26 05:04:37;;;;;;;30.77;5.75;;;;;;;9.95;100.00;96742.69;4724750;30;20061;-96
2022/09/26 05:07:03;;;;;;;30.90;5.32;;;;;;;9.89;100.00;96749.81;4715383;30;20056;-94
2022/09/26 05:09:29;;;;;;;29.52;4.63;;;;;;;9.98;100.00;96746.03;4702483;30;20060;-96
2022/09/26 05:12:03;;;;;;;26.20;4.45;;;;;;;10.27;100.00;96736.22;4715480;30;20570;-96
2022/09/26 05:14:36;;;;;;;33.15;4.72;;;;;;;9.94;100.00;96762.69;4703296;30;20044;-96
2022/09/26 05:17:02;;;;;;;;;;;;;;;10.48;100.00;96778.84;4700783;30;20056;-95
2022/09/26 05:19:28;;;;;;;28.08;4.88;;;;;;;10.29;100.00;96776.06;4718141;30;21435;-96
2022/09/26 05:21:56;;;;;;;38.63;4.55;;;;;;;10.49;100.00;96775.28;4707867;30;20033;-94
2022/09/26 05:27:14;;;;;;;33.13;5.68;;;;;;;10.37;100.00;96760.19;4723925;30;20054;-96
2022/09/26 05:29:54;;;;;;;35.42;5.45;;;;;;;10.31;100.00;96753.41;4737153;30;20040;-95
2022/09/26 05:32:22;;;;;;;39.03;5.68;;;;;;;10.35;100.00;96748.97;4730078;30;20059;-95
2022/09/26 05:34:49;;;;;;;24.67;4.75;;;;;;;10.39;100.00;96750.53;4754029;30;21213;-95
2022/09/26 05:37:15;;;;;;;34.53;5.70;;;;;;;9.95;100.00;96759.19;4739923;30;20094;-95
2022/09/26 05:42:29;;;;;;;34.72;5.63;;;;;;;9.95;100.00;96763.53;4733685;30;20410;-94
2022/09/26 05:44:54;;;;;;;31.30;5.63;;;;;;;9.93;100.00;96757.53;4741129;30;20045;-96
2022/09/26 05:47:20;;;;;;;36.33;6.38;;;;;;;9.88;100.00;96749.88;4721424;30;20102;-96
2022/09/26 05:49:46;;;;;;;28.50;4.47;;;;;;;9.71;100.00;96746.19;4741797;30;20045;-96
2022/09/26 05:52:12;;;;;;;30.02;5.07;;;;;;;9.88;100.00;96750.75;4739875;30;20434;-96
2022/09/26 05:54:38;;;;;;;33.45;5.45;;;;;;;10.16;100.00;96752.28;4735943;30;20040;-96
2022/09/26 05:57:04;;;;;;;40.85;5.38;;;;;;;10.08;100.00;96765.59;4737144;30;20044;-96
2022/09/26 05:59:30;;;;;;;29.02;5.25;;;;;;;10.24;100.00;96765.84;4736788;30;20040;-96
2022/09/26 06:02:12;;;;;;;30.40;5.20;;;;;;;10.23;100.00;96763.31;4750038;30;20067;-96
2022/09/26 06:04:38;;;;;;;29.45;4.78;;;;;;;10.17;100.00;96759.16;4756873;30;20415;-96
2022/09/26 06:07:04;;;;;;;37.17;4.45;;;;;;;10.27;100.00;96753.59;4760829;30;20036;-96
2022/09/26 06:09:30;;;;;;;29.65;4.88;;;;;;;10.06;100.00;96748.31;4769155;30;20032;-96
2022/09/26 06:11:56;;;;;;;27.65;4.90;;;;;;;10.20;100.00;96746.03;4762614;30;20048;-95
2022/09/26 06:14:25;;;;;;;25.23;4.43;;;;;;;10.09;100.00;96750.84;4746751;30;20039;-95
2022/09/26 06:17:04;;;;;;;30.45;4.70;;;;;;;10.23;100.00;96761.53;4737055;30;20463;-94
2022/09/26 06:19:39;;;;;;;28.55;4.78;;;;;;;9.98;100.00;96771.22;4756047;30;20507;-96
2022/09/26 06:22:08;;;;;;;23.98;4.20;;;;;;;10.14;100.00;96782.72;4758323;30;20127;-94
2022/09/26 06:24:46;;;;;;;29.35;4.70;;;;;;;10.07;100.00;96776.06;4741364;30;20056;-96
2022/09/26 06:27:42;;;;;;;24.05;5.10;;;;;;;9.73;100.00;96799.03;4756925;30;20047;-96
2022/09/26 06:30:10;;;;;;;35.85;5.20;;;;;;;9.80;100.00;96780.56;4755769;30;20105;-95
2022/09/26 06:32:45;;;;;;;33.95;5.13;;;;;;;9.80;100.00;96793.59;4752995;30;20505;-96
2022/09/26 06:35:13;;;;;;;27.08;4.85;;;;;;;9.63;100.00;96795.09;4753579;30;20680;-96
2022/09/26 06:37:39;;;;;;;28.33;4.15;;;;;;;9.71;100.00;96786.97;4740985;30;20119;-96
2022/09/26 06:40:14;;;;;;;22.75;4.15;;;;;;;9.89;100.00;96807.09;4749153;30;20079;-96
2022/09/26 06:42:40;;;;;;;26.77;4.38;;;;;;;9.79;100.00;96789.31;4751408;30;20051;-96
2022/09/26 06:45:09;;;;;;;31.48;4.88;;;;;;;9.59;100.00;96785.69;4750963;30;20040;-96
2022/09/26 06:47:36;;;;;;;27.77;4.68;;;;;;;9.66;100.00;96781.09;4762173;30;20028;-96
2022/09/26 06:50:02;;;;;;;26.90;4.80;;;;;;;9.41;100.00;96782.00;4755017;30;20559;-94
2022/09/26 06:52:32;;;;;;;32.53;4.28;;;;;;;9.46;100.00;96785.28;4752334;30;20036;-95
2022/09/26 06:54:58;;;;;;;33.70;4.53;;;;;;;10.98;100.00;96782.00;4751894;30;20035;-94
2022/09/26 06:57:23;;;;;;;33.72;5.07;;;;;;;9.58;100.00;96781.38;4740983;30;20397;-95
2022/09/26 06:59:51;;;;;;;23.23;4.15;;;;;;;9.62;100.00;96779.53;4749188;30;20123;-94
2022/09/26 07:02:55;;;;;;;22.20;4.07;;;;;;;9.64;100.00;96775.09;4744114;30;20070;-95
2022/09/26 07:05:23;;;;;;;26.75;4.15;;;;;;;9.64;100.00;96762.09;4761006;30;20477;-95
2022/09/26 07:07:58;;;;;;;25.77;4.60;;;;;;;9.69;100.00;96778.41;4750052;30;20047;-96
2022/09/26 07:10:23;;;;;;;22.98;4.35;;;;;;;9.83;100.00;96786.53;4750240;30;20056;-95
2022/09/26 07:13:00;;;;;;;26.17;4.28;;;;;;;9.78;100.00;96780.63;4755104;30;20799;-96
2022/09/26 07:15:29;;;;;;;22.02;4.55;;;;;;;9.66;100.00;96794.97;4751421;30;20033;-95
2022/09/26 07:18:00;;;;;;;26.88;4.80;;;;;;;9.79;100.00;96784.09;4738419;30;20044;-96
2022/09/26 07:20:34;;;;;;;26.65;4.97;;;;;;;10.05;100.00;96796.97;4756985;30;20101;-96
2022/09/26 07:23:01;;;;;;;;;;;;;;;10.03;100.00;96803.97;4754324;30;20040;-95
2022/09/26 07:25:30;;;;;;;28.65;4.35;;;;;;;10.17;100.00;96795.63;4740704;30;20018;-96
2022/09/26 07:28:00;;;;;;;28.45;4.88;;;;;;;10.21;100.00;96807.63;4749110;30;20521;-96
2022/09/26 07:30:29;;;;;;;24.85;5.18;;;;;;;10.21;100.00;96798.97;4757716;30;20051;-96
2022/09/26 07:33:02;;;;;;;22.63;3.88;;;;;;;10.21;100.00;96806.78;4752997;30;20032;-96
2022/09/26 07:35:33;;;;;;;27.35;4.68;;;;;;;10.58;100.00;96816.63;4765903;30;20054;-94
2022/09/26 07:37:58;;;;;;;26.20;5.03;;;;;;;10.44;100.00;96798.13;4745104;30;20509;-96
2022/09/26 07:40:25;;;;;;;30.10;5.20;;;;;;;10.45;100.00;96818.03;4759902;30;20042;-95
2022/09/26 07:42:51;;;;;;;24.83;4.47;;;;;;;10.75;100.00;96802.06;4740462;30;20058;-95
2022/09/26 07:50:10;;;;;;;20.90;4.05;;;;;;;11.08;100.00;96806.78;4770610;30;20440;-95
2022/09/26 07:50:59;;;;;;;24.65;3.55;;;;;;;10.92;100.00;96801.38;4757315;30;20052;-95
2022/09/26 07:53:35;;;;;;;20.88;4.00;;;;;;;10.74;100.00;96819.47;4767785;30;20058;-96
2022/09/26 07:56:08;;;;;;;16.48;2.97;;;;;;;10.59;100.00;96817.47;4761779;30;20043;-94
2022/09/26 07:58:41;;;;;;;;;;;;;;;10.49;100.00;96827.41;4754746;30;20119;-94
2022/09/26 08:01:14;;;;;;;23.98;3.55;;;;;;;10.38;100.00;96827.88;4742805;30;19926;-96
2022/09/26 08:03:55;;;;;;;18.20;3.25;;;;;;;10.66;100.00;96839.81;4755490;30;20500;-94
2022/09/26 08:06:35;;;;;;;19.05;3.97;;;;;;;10.41;100.00;96847.75;4759715;30;20043;-95
2022/09/26 08:09:14;;;;;;;22.10;3.97;;;;;;;10.49;100.00;96834.41;4753717;30;20513;-95
2022/09/26 08:11:42;;;;;;;20.75;3.75;;;;;;;10.95;100.00;96829.06;4752056;30;20032;-96
2022/09/26 08:14:08;;;;;;;19.83;3.05;;;;;;;11.16;100.00;96840.38;4758087;30;20032;-95
2022/09/26 08:16:40;;;;;;;17.25;3.05;;;;;;;10.97;100.00;96833.31;4754290;30;20035;-95
2022/09/26 08:19:16;;;;;;;24.50;3.90;;;;;;;11.02;100.00;96847.03;4737264;30;20036;-94
2022/09/26 08:21:41;;;;;;;17.90;2.95;;;;;;;11.37;100.00;96854.25;4759185;30;20036;-95
2022/09/26 08:24:07;;;;;;;18.90;3.03;;;;;;;11.23;100.00;96845.28;4751157;30;20457;-96
2022/09/26 08:26:33;;;;;;;14.60;3.03;;;;;;;11.43;100.00;96844.41;4762698;30;20035;-95
2022/09/26 08:28:58;;;;;;;21.60;3.70;;;;;;;11.08;100.00;96836.31;4745840;30;20044;-94
2022/09/26 08:31:24;;;;;;;17.38;2.72;;;;;;;10.92;100.00;96835.25;4766314;30;20028;-96
2022/09/26 08:33:56;;;;;;;21.10;2.97;;;;;;;10.91;100.00;96842.25;4771129;30;20040;-95
2022/09/26 08:36:22;;;;;;;16.33;2.50;;;;;;;11.26;100.00;96871.22;4765966;30;20048;-96
2022/09/26 08:39:09;;;;;;;20.13;2.85;;;;;;;11.84;100.00;96861.78;4764179;30;20047;-95
2022/09/26 08:42:32;;;;;;;;;;;;;;;;;;;;;
2022/09/26 08:48:48;;;;;;;16.58;2.83;;;;;;;11.76;100.00;96848.19;4757397;30;20047;-95
2022/09/26 08:51:45;;;;;;;17.10;2.67;;;;;;;11.74;100.00;96856.09;4769973;30;20059;-96
2022/09/26 08:54:34;;;;;;;17.58;2.88;;;;;;;11.39;100.00;96855.91;4744809;30;20043;-96
2022/09/26 08:57:06;;;;;;;17.70;2.63;;;;;;;11.40;100.00;96859.38;4751265;30;20043;-96
2022/09/26 09:00:07;;;;;;;19.20;2.45;;;;;;;11.47;100.00;96865.16;4748302;30;20023;-96
2022/09/26 09:03:01;;;;;;;17.48;2.45;;;;;;;11.00;100.00;96874.91;4772209;30;20151;-96
2022/09/26 09:05:32;;;;;;;;;;;;;;;11.44;100.00;96890.47;4705374;30;20091;-96
2022/09/26 09:08:03;;;;;;;16.40;2.83;;;;;;;11.40;100.00;96888.09;4699411;30;19961;-96
2022/09/26 09:11:06;;;;;;;14.65;2.67;;;;;;;11.21;100.00;96886.22;4701063;30;20072;-95
2022/09/26 09:14:13;;;;;;;13.48;1.98;;;;;;;11.15;100.00;96889.09;4677704;30;20096;-96
2022/09/26 09:17:02;;;;;;;12.63;2.20;;;;;;;11.37;100.00;96894.28;4704127;30;20049;-96
2022/09/26 09:19:49;;;;;;;14.90;1.73;;;;;;;11.19;100.00;96895.88;4706432;30;20042;-95
2022/09/26 09:22:33;;;;;;;15.55;2.00;;;;;;;11.27;100.00;96912.09;4688081;30;20936;-96
2022/09/26 09:25:39;;;;;;;12.55;2.00;;;;;;;11.13;100.00;96932.66;4704436;30;20499;-96
2022/09/26 09:28:23;;;;;;;11.13;1.67;;;;;;;11.73;100.00;96924.09;4700235;30;20045;-95
2022/09/26 09:34:43;;;;;;;10.65;1.55;;;;;;;11.99;100.00;96925.59;4705029;30;20076;-95
2022/09/26 09:37:45;;;;;;;13.88;2.05;;;;;;;12.55;100.00;96930.94;4703366;30;20057;-96
2022/09/26 09:41:43;;;;;;;;;;;;;;;;;;;;;
2022/09/26 09:44:20;;;;;;;11.55;1.63;;;;;;;12.16;100.00;96930.06;4750301;30;20125;-96
2022/09/26 09:47:16;;;;;;;12.32;1.40;;;;;;;11.72;100.00;96938.06;4757159;30;20067;-95
2022/09/26 09:49:43;;;;;;;12.70;1.73;;;;;;;13.72;100.00;96921.81;4750042;30;20059;-92
2022/09/26 09:52:34;;;;;;;8.10;1.65;;;;;;;13.44;100.00;96915.34;4752454;30;21293;-95
2022/09/26 09:55:20;;;;;;;10.98;1.60;;;;;;;13.98;100.00;96900.34;4760663;30;20036;-93
2022/09/26 09:58:13;;;;;;;11.18;2.00;;;;;;;13.17;100.00;96900.06;4765535;30;20039;-96
2022/09/26 10:00:46;;;;;;;10.70;1.98;;;;;;;11.57;100.00;96916.91;4759930;30;20041;-93
2022/09/26 10:03:48;;;;;;;;;;;;;;;12.43;100.00;96916.69;4759960;30;20143;-95
2022/09/26 10:06:43;;;;;;;10.95;1.70;;;;;;;12.54;100.00;96917.03;4757766;30;20004;-96
2022/09/26 10:09:33;;;;;;;12.13;1.83;;;;;;;11.99;100.00;96902.06;4757073;30;20059;-96
2022/09/26 10:12:44;;;;;;;14.25;2.00;;;;;;;11.09;100.00;96913.69;4756013;30;20064;-95
2022/09/26 10:16:04;;;;;;;9.70;1.60;;;;;;;11.49;100.00;96934.66;4746212;30;20044;-96
2022/09/26 10:18:30;;;;;;;12.15;1.80;;;;;;;11.77;100.00;96916.06;4729601;30;20078;-96
2022/09/26 10:21:11;;;;;;;10.55;1.60;;;;;;;11.70;100.00;96922.44;4758966;30;20074;-96
2022/09/26 10:23:51;;;;;;;7.25;1.35;;;;;;;11.75;100.00;96949.22;4756965;30;20417;-96
2022/09/26 10:26:39;;;;;;;9.85;1.42;;;;;;;12.47;100.00;96936.53;4755165;30;20051;-96
2022/09/26 10:29:29;;;;;;;8.35;1.27;;;;;;;12.18;100.00;96919.53;4758644;30;20071;-94
2022/09/26 10:32:41;;;;;;;8.15;1.33;;;;;;;11.24;100.00;96924.41;4755815;30;20044;-96
2022/09/26 10:35:54;;;;;;;;;;;;;;;;;;;;;
2022/09/26 10:40:43;;;;;;;5.53;1.00;;;;;;;12.53;100.00;96946.69;4668450;30;20110;-96
2022/09/26 10:48:09;;;;;;;8.60;1.55;;;;;;;11.81;100.00;96934.22;4678298;30;20038;-96
2022/09/26 10:54:56;;;;;;;8.80;1.35;;;;;;;12.20;100.00;96942.06;4672701;30;20069;-96
2022/09/26 10:58:04;;;;;;;8.85;1.20;;;;;;;11.89;100.00;96939.94;4608501;31;20181;-96
2022/09/26 11:00:44;;;;;;;8.52;1.52;;;;;;;12.00;100.00;96942.13;4587376;31;20100;-96
2022/09/26 11:04:06;;;;;;;11.02;1.10;;;;;;;11.55;100.00;96955.31;4618933;31;20127;-96
2022/09/26 11:06:52;;;;;;;7.90;1.30;;;;;;;11.37;100.00;96958.66;4583346;31;20053;-96
2022/09/26 11:09:27;;;;;;;7.32;1.50;;;;;;;11.46;100.00;96936.56;4647671;30;20054;-95
2022/09/26 11:16:00;;;;;;;5.72;1.02;;;;;;;11.95;100.00;96930.13;4680341;30;20061;-96
2022/09/26 11:18:57;;;;;;;7.72;1.40;;;;;;;11.39;100.00;96935.97;4660909;30;20057;-96
2022/09/26 11:22:13;;;;;;;7.75;1.00;;;;;;;11.60;100.00;96948.09;4693355;30;20074;-96
2022/09/26 11:25:26;;;;;;;5.68;1.02;;;;;;;12.58;100.00;96956.94;4659425;30;20045;-96
2022/09/26 11:28:44;;;;;;;4.40;0.80;;;;;;;12.19;100.00;96924.72;4708303;30;20049;-96
2022/09/26 11:31:41;;;;;;;6.25;0.90;;;;;;;11.56;100.00;96923.03;4706366;30;20099;-96
2022/09/26 11:34:12;;;;;;;5.13;1.00;;;;;;;11.55;100.00;96931.81;4723710;30;20037;-96
2022/09/26 11:37:17;;;;;;;6.22;1.10;;;;;;;11.89;100.00;96939.94;4732628;30;20057;-96
2022/09/26 11:40:00;;;;;;;;;;;;;;;11.89;100.00;96938.19;4709465;30;20049;-96
2022/09/26 11:42:38;;;;;;;4.78;0.82;;;;;;;12.16;100.00;96937.91;4721264;30;19918;-96
2022/09/26 11:45:32;;;;;;;8.25;1.20;;;;;;;12.40;100.00;96932.47;4768697;30;20036;-96
2022/09/26 11:48:41;;;;;;;5.95;0.90;;;;;;;12.65;100.00;96937.44;4761602;30;20108;-96
2022/09/26 11:51:35;;;;;;;6.25;1.45;;;;;;;12.71;100.00;96941.53;4777250;29;20780;-96
2022/09/26 11:54:26;;;;;;;5.78;1.00;;;;;;;13.11;100.00;96950.09;4762580;30;20047;-96
2022/09/26 12:15:26;;;;;;;7.50;0.85;;;;;;;12.95;100.00;96929.06;4787147;24;20063;-87
2022/09/26 12:18:30;;;;;;;3.13;0.47;;;;;;;12.93;100.00;96941.34;4773895;29;20420;-88
2022/09/26 12:21:17;;;;;;;3.72;0.80;;;;;;;13.11;100.00;96939.59;4794890;29;20060;-88
2022/09/26 12:23:56;;;;;;;5.28;0.80;;;;;;;12.41;100.00;96945.47;4772729;29;20209;-87
2022/09/26 12:26:21;;;;;;;6.45;1.00;;;;;;;12.08;100.00;96948.72;4790369;29;20499;-88
2022/09/26 12:28:58;;;;;;;4.82;0.85;;;;;;;12.31;100.00;96951.22;4795821;29;20039;-87
2022/09/26 12:31:42;;;;;;;6.05;0.85;;;;;;;12.60;100.00;96931.56;4798486;29;20095;-87
2022/09/26 12:34:36;;;;;;;4.97;0.90;;;;;;;12.59;100.00;96935.09;4791539;29;20123;-88
2022/09/26 12:37:08;;;;;;;4.80;0.80;;;;;;;12.37;100.00;96948.31;4792037;29;20039;-88
2022/09/26 12:39:52;;;;;;;6.90;1.67;;;;;;;12.08;100.00;96950.44;4779307;29;20751;-87
2022/09/26 12:42:52;;;;;;;7.03;1.23;;;;;;;12.31;100.00;96948.59;4788487;29;20035;-88
2022/09/26 12:45:49;;;;;;;13.63;1.50;;;;;;;12.40;100.00;96946.41;4794100;29;20149;-88
2022/09/26 12:48:33;;;;;;;4.45;0.80;;;;;;;12.64;100.00;96943.59;4794607;29;20037;-88
2022/09/26 12:51:21;;;;;;;4.90;0.77;;;;;;;12.39;100.00;96946.50;4794359;29;20039;-87
2022/09/26 12:54:05;;;;;;;5.20;0.80;;;;;;;12.35;100.00;96939.69;4776546;29;20042;-88
2022/09/26 12:56:42;;;;;;;3.92;0.80;;;;;;;13.45;100.00;96935.38;4776443;29;20493;-88
2022/09/26 12:59:35;;;;;;;4.53;1.00;;;;;;;13.60;100.00;96939.00;4791924;29;20103;-87
2022/09/26 13:02:09;;;;;;;4.03;1.02;;;;;;;13.24;100.00;96938.09;4779995;29;20092;-88
2022/09/26 13:04:47;;;;;;;5.03;0.75;;;;;;;13.60;100.00;96934.59;4791941;29;20063;-88
2022/09/26 13:07:35;;;;;;;2.75;0.60;;;;;;;13.40;100.00;96950.47;4794863;29;20038;-88
2022/09/26 13:10:19;;;;;;;7.20;0.80;;;;;;;13.54;100.00;96932.31;4774477;29;20039;-87